DE30A LPCS-LPCS

Flight info

Callsign DE30A
Flight time 0h 6m
Altitude 1500
Route CCAIS
Aircraft C152/L-V/N

Departure

Time 2026-05-06 09:58
Airport Cascais Airport (LPCS)

Arrival

Time 2026-05-06 10:04
Airport Cascais Airport (LPCS)
Time Latitude Longitude Altitude Speed Heading
2026-05-06 09:51 38.72339 -9.35269 302 ft 0 kts 154°
2026-05-06 09:52 38.72338 -9.35268 304 ft 0 kts 155°
2026-05-06 09:55 38.72337 -9.35268 302 ft 0 kts 156°
2026-05-06 09:55 38.72324 -9.35294 301 ft 10 kts 266°
2026-05-06 09:55 38.72319 -9.35383 299 ft 10 kts 259°
2026-05-06 09:55 38.72275 -9.35438 296 ft 12 kts 173°
2026-05-06 09:56 38.72176 -9.35401 290 ft 17 kts 164°
2026-05-06 09:56 38.72058 -9.35357 287 ft 18 kts 169°
2026-05-06 09:56 38.71939 -9.35315 281 ft 18 kts 163°
2026-05-06 09:56 38.71840 -9.35264 275 ft 13 kts 136°
2026-05-06 09:57 38.71823 -9.35274 274 ft 5 kts 350°
2026-05-06 09:57 38.71930 -9.35313 281 ft 37 kts 343°
2026-05-06 09:57 38.72269 -9.35427 372 ft 55 kts 346°
2026-05-06 09:57 38.72629 -9.35507 567 ft 53 kts 351°
2026-05-06 09:58 38.72993 -9.35605 780 ft 57 kts 348°
2026-05-06 09:58 38.73421 -9.35700 922 ft 63 kts 350°
2026-05-06 09:58 38.73855 -9.35779 1074 ft 68 kts 349°
2026-05-06 09:58 38.74342 -9.35879 1096 ft 70 kts 348°
2026-05-06 09:59 38.74638 -9.36316 1019 ft 75 kts 273°
2026-05-06 09:59 38.74533 -9.36955 1054 ft 71 kts 264°
2026-05-06 09:59 38.74471 -9.37600 1041 ft 75 kts 271°
2026-05-06 09:59 38.74422 -9.38271 1143 ft 76 kts 275°
2026-05-06 10:00 38.74370 -9.38997 1152 ft 85 kts 273°
2026-05-06 10:00 38.74306 -9.39747 1168 ft 87 kts 273°
2026-05-06 10:00 38.74260 -9.40515 1170 ft 83 kts 273°
2026-05-06 10:00 38.74183 -9.41258 1139 ft 86 kts 265°
2026-05-06 10:01 38.74082 -9.42023 1125 ft 88 kts 269°
2026-05-06 10:01 38.74007 -9.42780 1141 ft 83 kts 270°
2026-05-06 10:01 38.73938 -9.43523 1100 ft 85 kts 274°
2026-05-06 10:01 38.73915 -9.44273 1077 ft 83 kts 281°
2026-05-06 10:02 38.73957 -9.44984 1090 ft 78 kts 285°
2026-05-06 10:02 38.74015 -9.45650 1125 ft 74 kts 286°
2026-05-06 10:02 38.74077 -9.46344 1045 ft 79 kts 296°
2026-05-06 10:02 38.74315 -9.46925 985 ft 73 kts 318°
2026-05-06 10:03 38.74612 -9.47399 1029 ft 66 kts 321°
2026-05-06 10:03 38.74935 -9.47857 955 ft 74 kts 320°
2026-05-06 10:03 38.75274 -9.48332 961 ft 66 kts 326°
2026-05-06 10:03 38.75637 -9.48629 1000 ft 60 kts 340°
2026-05-06 10:04 38.76011 -9.48861 1017 ft 59 kts 339°
2026-05-06 10:04 38.76378 -9.49065 919 ft 53 kts 341°
2026-05-06 10:04 38.76698 -9.49237 885 ft 42 kts 344°
2026-05-06 10:04 38.76942 -9.49324 760 ft 35 kts 347°
2026-05-06 10:05 38.77186 -9.49517 755 ft 47 kts 345°
2026-05-06 10:05 38.77510 -9.49662 853 ft 48 kts 347°
2026-05-06 10:05 38.77855 -9.49756 723 ft 53 kts 353°
2026-05-06 10:05 38.78191 -9.49830 830 ft 52 kts
2026-05-06 10:06 38.78536 -9.49879 1090 ft 47 kts
2026-05-06 10:06 38.78861 -9.49824 1224 ft 51 kts 10°
2026-05-06 10:06 38.79197 -9.49729 1394 ft 50 kts 11°
2026-05-06 10:06 38.79541 -9.49627 1494 ft 58 kts 14°
2026-05-06 10:07 38.79947 -9.49449 1577 ft 63 kts 15°
2026-05-06 10:07 38.80367 -9.49285 1605 ft 62 kts 12°
2026-05-06 10:07 38.80776 -9.49154 1652 ft 58 kts 10°
2026-05-06 10:07 38.81174 -9.49031 1681 ft 61 kts
2026-05-06 10:08 38.81609 -9.48977 1705 ft 62 kts
2026-05-06 10:08 38.82080 -9.48945 1613 ft 74 kts
2026-05-06 10:08 38.82573 -9.48941 1636 ft 68 kts
2026-05-06 10:08 38.83040 -9.48971 1620 ft 68 kts 356°
2026-05-06 10:09 38.83506 -9.49080 1617 ft 69 kts 353°
2026-05-06 10:09 38.83973 -9.49191 1664 ft 65 kts 354°
2026-05-06 10:09 38.84430 -9.49270 1663 ft 69 kts 353°
2026-05-06 10:09 38.84895 -9.49312 1696 ft 68 kts
2026-05-06 10:10 38.85380 -9.49241 1694 ft 69 kts
2026-05-06 10:10 38.85876 -9.49248 1687 ft 72 kts 359°
2026-05-06 10:10 38.86378 -9.49240 1674 ft 72 kts
2026-05-06 10:10 38.86864 -9.49231 1671 ft 70 kts
2026-05-06 10:11 38.87364 -9.49263 1620 ft 72 kts 358°
2026-05-06 10:11 38.87839 -9.49315 1633 ft 67 kts 357°
2026-05-06 10:11 38.88306 -9.49358 1609 ft 67 kts
2026-05-06 10:11 38.88776 -9.49350 1590 ft 67 kts
2026-05-06 10:12 38.89244 -9.49336 1581 ft 71 kts
2026-05-06 10:12 38.89709 -9.49193 1638 ft 66 kts 13°
2026-05-06 10:12 38.90170 -9.49019 1603 ft 69 kts 13°
2026-05-06 10:12 38.90645 -9.48847 1572 ft 73 kts 13°
2026-05-06 10:13 38.91111 -9.48701 1651 ft 65 kts
2026-05-06 10:13 38.91562 -9.48571 1604 ft 70 kts 12°
2026-05-06 10:13 38.92011 -9.48359 1616 ft 68 kts 20°
2026-05-06 10:13 38.92434 -9.48039 1579 ft 74 kts 27°
2026-05-06 10:14 38.92834 -9.47654 1618 ft 69 kts 29°
2026-05-06 10:14 38.93247 -9.47324 1602 ft 70 kts 20°
2026-05-06 10:14 38.93690 -9.47118 1638 ft 64 kts 12°
2026-05-06 10:14 38.94142 -9.46989 1626 ft 67 kts 10°
2026-05-06 10:15 38.94586 -9.46847 1640 ft 67 kts 15°
2026-05-06 10:15 38.94971 -9.46509 1657 ft 69 kts 32°
2026-05-06 10:15 38.95361 -9.46140 1639 ft 75 kts 29°
2026-05-06 10:15 38.95779 -9.45687 1643 ft 74 kts 29°
2026-05-06 10:16 38.96200 -9.45306 1609 ft 77 kts 25°
2026-05-06 10:16 38.96605 -9.44938 1672 ft 69 kts 26°
2026-05-06 10:16 38.97039 -9.44615 1644 ft 68 kts 23°
2026-05-06 10:16 38.97460 -9.44348 1636 ft 71 kts 16°
2026-05-06 10:17 38.97917 -9.44084 1645 ft 72 kts 18°
2026-05-06 10:17 38.98355 -9.43873 1707 ft 70 kts 18°
2026-05-06 10:17 38.98826 -9.43675 1722 ft 70 kts 15°
2026-05-06 10:17 38.99266 -9.43444 1760 ft 66 kts 19°
2026-05-06 10:18 38.99688 -9.43195 1719 ft 68 kts 16°
2026-05-06 10:18 39.00134 -9.42957 1679 ft 70 kts 12°
2026-05-06 10:18 39.00584 -9.42834 1681 ft 68 kts
2026-05-06 10:18 39.01089 -9.42668 1647 ft 75 kts 11°
2026-05-06 10:19 39.01560 -9.42539 1709 ft 68 kts 10°
2026-05-06 10:19 39.02013 -9.42416 1728 ft 68 kts
2026-05-06 10:19 39.02466 -9.42278 1824 ft 64 kts 11°
2026-05-06 10:19 39.02888 -9.42115 1936 ft 62 kts
2026-05-06 10:20 39.03286 -9.41993 2037 ft 63 kts 11°
2026-05-06 10:20 39.03734 -9.41810 2018 ft 69 kts 11°
2026-05-06 10:20 39.04201 -9.41695 2071 ft 69 kts
2026-05-06 10:20 39.04676 -9.41547 2092 ft 70 kts 12°
2026-05-06 10:21 39.05130 -9.41376 2116 ft 65 kts 11°
2026-05-06 10:21 39.05536 -9.41193 2049 ft 60 kts 17°
2026-05-06 10:21 39.05946 -9.40991 1917 ft 65 kts 15°
2026-05-06 10:21 39.06361 -9.40767 1826 ft 66 kts 15°
2026-05-06 10:22 39.06806 -9.40554 1740 ft 70 kts 16°
2026-05-06 10:22 39.07257 -9.40335 1683 ft 69 kts 15°
2026-05-06 10:22 39.07691 -9.40138 1656 ft 61 kts
2026-05-06 10:22 39.08072 -9.39921 1562 ft 58 kts
2026-05-06 10:23 39.08460 -9.39763 1558 ft 61 kts 24°
2026-05-06 10:23 39.08808 -9.39494 1596 ft 59 kts 20°
2026-05-06 10:23 39.09189 -9.39201 1607 ft 67 kts 25°
2026-05-06 10:23 39.09591 -9.38895 1592 ft 69 kts 24°
2026-05-06 10:24 39.09596 -9.38891 1592 ft 69 kts 24°
2026-05-06 10:25 39.09700 -9.38813 1591 ft 68 kts 23°
2026-05-06 10:25 39.10050 -9.38441 1563 ft 64 kts 24°
2026-05-06 10:25 39.10413 -9.38203 1608 ft 55 kts 19°
2026-05-06 10:25 39.10756 -9.38026 1646 ft 51 kts 13°
2026-05-06 10:26 39.10960 -9.37819 1597 ft 64 kts 39°
2026-05-06 10:26 39.11405 -9.37414 1575 ft 61 kts 13°
2026-05-06 10:26 39.11690 -9.37351 1542 ft 61 kts 355°
2026-05-06 10:26 39.12062 -9.37627 1494 ft 67 kts 313°
2026-05-06 10:27 39.11928 -9.38404 1471 ft 85 kts 221°
2026-05-06 10:27 39.11362 -9.38359 1477 ft 85 kts 160°
2026-05-06 10:27 39.10767 -9.38258 1426 ft 90 kts 178°
2026-05-06 10:27 39.10354 -9.38228 1434 ft 87 kts 181°
2026-05-06 10:28 39.09734 -9.38245 1320 ft 91 kts 181°
2026-05-06 10:28 39.09213 -9.37951 1162 ft 83 kts 102°
2026-05-06 10:28 39.09441 -9.37504 1014 ft 57 kts 357°
2026-05-06 10:28 39.09797 -9.37458 904 ft 50 kts
2026-05-06 10:29 39.10143 -9.37424 880 ft 45 kts 354°
2026-05-06 10:29 39.10476 -9.37465 754 ft 55 kts 343°
2026-05-06 10:29 39.10835 -9.37567 583 ft 50 kts 345°
2026-05-06 10:29 39.11183 -9.37659 473 ft 52 kts 343°
2026-05-06 10:30 39.11538 -9.37763 419 ft 55 kts 348°
2026-05-06 10:30 39.11907 -9.37869 316 ft 56 kts 345°
2026-05-06 10:30 39.12239 -9.37965 180 ft 37 kts 346°
2026-05-06 10:30 39.12451 -9.38026 158 ft 45 kts 346°
2026-05-06 10:31 39.12773 -9.38222 334 ft 52 kts 302°
2026-05-06 10:31 39.12651 -9.38726 445 ft 69 kts 232°
2026-05-06 10:31 39.12264 -9.39126 656 ft 72 kts 223°
2026-05-06 10:31 39.11796 -9.39390 843 ft 81 kts 191°
2026-05-06 10:32 39.11363 -9.38936 888 ft 93 kts 117°
2026-05-06 10:32 39.10805 -9.38455 970 ft 97 kts 156°
2026-05-06 10:32 39.10126 -9.38243 1040 ft 104 kts 171°
2026-05-06 10:32 39.09455 -9.37992 1084 ft 99 kts 136°
2026-05-06 10:33 39.09210 -9.37357 1093 ft 75 kts 92°
2026-05-06 10:33 39.09323 -9.36767 892 ft 65 kts 23°
2026-05-06 10:33 39.09745 -9.36808 750 ft 63 kts 332°
2026-05-06 10:33 39.10073 -9.37081 733 ft 60 kts 325°
2026-05-06 10:34 39.10423 -9.37406 768 ft 67 kts 342°
2026-05-06 10:34 39.10826 -9.37562 676 ft 53 kts 343°
2026-05-06 10:34 39.11210 -9.37664 512 ft 57 kts 346°
2026-05-06 10:34 39.11581 -9.37774 414 ft 50 kts 342°
2026-05-06 10:35 39.11914 -9.37872 301 ft 49 kts 344°
2026-05-06 10:35 39.12206 -9.37956 181 ft 33 kts 344°
2026-05-06 10:35 39.12383 -9.38009 164 ft 36 kts 347°
2026-05-06 10:35 39.12690 -9.38194 277 ft 57 kts 302°
2026-05-06 10:36 39.12710 -9.38750 434 ft 64 kts 267°
2026-05-06 10:36 39.12535 -9.39257 699 ft 64 kts 235°
2026-05-06 10:36 39.12130 -9.39598 807 ft 73 kts 217°
2026-05-06 10:36 39.11652 -9.39804 992 ft 72 kts 203°
2026-05-06 10:37 39.11151 -9.39973 1150 ft 75 kts 200°
2026-05-06 10:37 39.10639 -9.40100 1289 ft 80 kts 192°
2026-05-06 10:37 39.10114 -9.39941 1393 ft 85 kts 110°
2026-05-06 10:37 39.10270 -9.39363 1470 ft 69 kts 30°
2026-05-06 10:38 39.10585 -9.38984 1599 ft 57 kts 31°
2026-05-06 10:38 39.10864 -9.38628 1617 ft 60 kts 31°
2026-05-06 10:38 39.11191 -9.38365 1694 ft 52 kts 21°
2026-05-06 10:38 39.11517 -9.38150 1715 ft 50 kts 12°
2026-05-06 10:39 39.11832 -9.38035 1641 ft 45 kts
2026-05-06 10:39 39.12128 -9.38002 1485 ft 47 kts 327°
2026-05-06 10:39 39.12075 -9.38454 1271 ft 69 kts 219°
2026-05-06 10:39 39.11607 -9.38555 1063 ft 70 kts 196°
2026-05-06 10:40 39.11275 -9.38210 729 ft 61 kts 46°
2026-05-06 10:40 39.11604 -9.38017 477 ft 53 kts 17°
2026-05-06 10:40 39.11913 -9.37896 336 ft 38 kts 359°
2026-05-06 10:40 39.12135 -9.37933 184 ft 23 kts 345°
2026-05-06 10:41 39.12221 -9.37962 174 ft 5 kts 343°